Time;durP1;ratioP1;P1;durP2;ratioP2;P2;SDS_P1;SDS_P2;PMS_P1;PMS_P2;Temp;Humidity;BMP_temperature;BMP_pressure;BME280_temperature;BME280_humidity;BME280_pressure;Samples;Min_cycle;Max_cycle;Signal;HPM_P1;HPM_P2
2023/09/18 00:00:53;;;;;;;;;;;;;;;;;;5093250;28;19924;-74
2023/09/18 00:03:20;;;;;;;;;;;;;;;;;;5090793;28;20362;-73
2023/09/18 00:05:48;;;;;;;;;;;;;;;;;;5073078;28;19928;-73
2023/09/18 00:08:15;;;;;;;;;;;;;;;;;;5079266;28;20268;-72
2023/09/18 00:10:42;;;;;;;;;;;;;;;;;;5080079;28;20065;-72
2023/09/18 00:13:09;;;;;;;;;;;;;;;;;;5090921;28;19969;-72
2023/09/18 00:15:36;;;;;;;;;;;;;;;;;;5092688;28;19950;-71
2023/09/18 00:18:03;;;;;;;;;;;;;;;;;;5093059;28;19924;-72
2023/09/18 00:20:30;;;;;;;;;;;;;;;;;;5092761;28;19924;-72
2023/09/18 00:22:57;;;;;;;;;;;;;;;;;;5092911;28;19928;-73
2023/09/18 00:25:24;;;;;;;;;;;;;;;;;;5092556;28;19932;-73
2023/09/18 00:27:52;;;;;;;;;;;;;;;;;;5093132;28;19977;-72
2023/09/18 00:30:19;;;;;;;;;;;;;;;;;;5090897;28;20307;-73
2023/09/18 00:32:49;;;;;;;;;;;;;;;;;;5091984;28;20299;-73
2023/09/18 00:35:16;;;;;;;;;;;;;;;;;;5092568;28;19971;-73
2023/09/18 00:37:44;;;;;;;;;;;;;;;;;;5092725;28;19924;-72
2023/09/18 00:40:11;;;;;;;;;;;;;;;;;;5091583;28;20000;-73
2023/09/18 00:42:38;;;;;;;;;;;;;;;;;;5085706;28;20289;-73
2023/09/18 00:45:05;;;;;;;;;;;;;;;;;;5091672;28;19925;-74
2023/09/18 00:47:32;;;;;;;;;;;;;;;;;;5092572;28;19924;-73
2023/09/18 00:49:59;;;;;;;;;;;;;;;;;;5088488;28;19990;-73
2023/09/18 00:52:26;;;;;;;;;;;;;;;;;;5080179;28;19929;-72
2023/09/18 00:54:53;;;;;;;;;;;;;;;;;;5092383;28;20399;-72
2023/09/18 00:57:20;;;;;;;;;;;;;;;;;;5090563;28;19924;-73
2023/09/18 00:59:47;;;;;;;;;;;;;;;;;;5086825;28;20514;-74
2023/09/18 01:02:14;;;;;;;;;;;;;;;;;;5092115;28;19924;-73
2023/09/18 01:04:43;;;;;;;;;;;;;;;;;;5091755;28;19970;-73
2023/09/18 01:07:10;;;;;;;;;;;;;;;;;;5072557;28;19963;-72
2023/09/18 01:09:37;;;;;;;;;;;;;;;;;;5088133;28;19928;-73
2023/09/18 01:12:04;;;;;;;;;;;;;;;;;;5091543;28;20588;-72
2023/09/18 01:14:31;;;;;;;;;;;;;;;;;;5092058;28;19924;-72
2023/09/18 01:16:58;;;;;;;;;;;;;;;;;;5090456;28;20387;-73
2023/09/18 01:19:26;;;;;;;;;;;;;;;;;;5091596;28;19979;-72
2023/09/18 01:21:53;;;;;;;;;;;;;;;;;;5095729;28;19997;-73
2023/09/18 01:24:20;;;;;;;;;;;;;;;;;;5106596;28;19924;-72
2023/09/18 01:26:47;;;;;;;;;;;;;;;;;;5116311;28;20364;-73
2023/09/18 01:29:14;;;;;;;;;;;;;;;;;;5116933;28;19977;-72
2023/09/18 01:31:41;;;;;;;;;;;;;;;;;;5096156;28;19924;-72
2023/09/18 01:34:08;;;;;;;;;;;;;;;;;;5096271;28;19951;-73
2023/09/18 01:36:35;;;;;;;;;;;;;;;;;;5095927;28;19970;-73
2023/09/18 01:39:03;;;;;;;;;;;;;;;;;;5096224;28;19931;-73
2023/09/18 01:41:30;;;;;;;;;;;;;;;;;;5093747;28;20393;-73
2023/09/18 01:43:57;;;;;;;;;;;;;;;;;;5097271;28;19977;-72
2023/09/18 01:46:24;;;;;;;;;;;;;;;;;;5088067;28;19924;-72
2023/09/18 01:48:52;;;;;;;;;;;;;;;;;;5093273;28;20001;-73
2023/09/18 01:51:19;;;;;;;;;;;;;;;;;;5096468;28;20302;-74
2023/09/18 01:53:46;;;;;;;;;;;;;;;;;;5096992;28;19924;-74
2023/09/18 01:56:13;;;;;;;;;;;;;;;;;;5100219;28;19945;-74
2023/09/18 01:58:40;;;;;;;;;;;;;;;;;;5116442;28;19932;-73
2023/09/18 02:01:07;;;;;;;;;;;;;;;;;;5114949;28;19924;-72
2023/09/18 02:03:34;;;;;;;;;;;;;;;;;;5094903;28;19978;-73
2023/09/18 02:06:02;;;;;;;;;;;;;;;;;;5091052;28;19924;-73
2023/09/18 02:08:29;;;;;;;;;;;;;;;;;;5086807;28;20368;-73
2023/09/18 02:10:56;;;;;;;;;;;;;;;;;;5074913;28;19932;-73
2023/09/18 02:13:23;;;;;;;;;;;;;;;;;;5087202;28;19928;-72
2023/09/18 02:15:50;;;;;;;;;;;;;;;;;;5094982;28;20007;-73
2023/09/18 02:18:17;;;;;;;;;;;;;;;;;;5105164;28;20383;-72
2023/09/18 02:20:47;;;;;;;;;;;;;;;;;;5115225;28;20491;-72
2023/09/18 02:23:14;;;;;;;;;;;;;;;;;;5112626;28;19923;-72
2023/09/18 02:25:41;;;;;;;;;;;;;;;;;;5094862;28;19969;-72
2023/09/18 02:28:08;;;;;;;;;;;;;;;;;;5094813;28;19996;-72
2023/09/18 02:30:35;;;;;;;;;;;;;;;;;;5094761;28;19965;-72
2023/09/18 02:33:03;;;;;;;;;;;;;;;;;;5094819;28;19931;-72
2023/09/18 02:35:30;;;;;;;;;;;;;;;;;;5094961;28;20338;-72
2023/09/18 02:37:57;;;;;;;;;;;;;;;;;;5101216;28;20347;-71
2023/09/18 02:40:24;;;;;;;;;;;;;;;;;;5110760;28;19928;-73
2023/09/18 02:42:51;;;;;;;;;;;;;;;;;;5092166;28;19993;-72
2023/09/18 02:45:18;;;;;;;;;;;;;;;;;;5093877;28;19931;-73
2023/09/18 02:47:45;;;;;;;;;;;;;;;;;;5094732;28;19928;-72
2023/09/18 02:50:12;;;;;;;;;;;;;;;;;;5080300;28;19925;-71
2023/09/18 02:52:39;;;;;;;;;;;;;;;;;;5092224;28;19924;-73
2023/09/18 02:55:06;;;;;;;;;;;;;;;;;;5094155;28;20013;-73
2023/09/18 02:57:33;;;;;;;;;;;;;;;;;;5094294;28;19924;-73
2023/09/18 03:00:00;;;;;;;;;;;;;;;;;;5094844;28;19924;-73
2023/09/18 03:02:27;;;;;;;;;;;;;;;;;;5093925;28;19924;-73
2023/09/18 03:04:54;;;;;;;;;;;;;;;;;;5094311;28;19986;-72
2023/09/18 03:07:21;;;;;;;;;;;;;;;;;;5094219;28;19924;-73
2023/09/18 03:09:48;;;;;;;;;;;;;;;;;;5094257;28;20383;-72
2023/09/18 03:12:15;;;;;;;;;;;;;;;;;;5081308;28;19978;-73
2023/09/18 03:14:42;;;;;;;;;;;;;;;;;;5085527;28;19925;-72
2023/09/18 03:17:10;;;;;;;;;;;;;;;;;;5103789;28;19946;-73
2023/09/18 03:19:37;;;;;;;;;;;;;;;;;;5076815;28;20031;-72
2023/09/18 03:22:04;;;;;;;;;;;;;;;;;;5088699;28;19924;-72
2023/09/18 03:24:31;;;;;;;;;;;;;;;;;;5093845;28;19969;-72
2023/09/18 03:26:58;;;;;;;;;;;;;;;;;;5093669;28;19928;-73
2023/09/18 03:29:25;;;;;;;;;;;;;;;;;;5093813;28;20387;-73
2023/09/18 03:31:52;;;;;;;;;;;;;;;;;;5096445;28;20351;-73
2023/09/18 03:34:19;;;;;;;;;;;;;;;;;;5093792;28;20367;-73
2023/09/18 03:36:46;;;;;;;;;;;;;;;;;;5093265;28;19924;-72
2023/09/18 03:39:13;;;;;;;;;;;;;;;;;;5093418;28;19924;-73
2023/09/18 03:41:40;;;;;;;;;;;;;;;;;;5093158;28;20763;-73
2023/09/18 03:44:07;;;;;;;;;;;;;;;;;;5092563;28;19924;-73
2023/09/18 03:46:34;;;;;;;;;;;;;;;;;;5092984;28;19924;-73
2023/09/18 03:49:01;;;;;;;;;;;;;;;;;;5093550;28;19924;-73
2023/09/18 03:51:29;;;;;;;;;;;;;;;;;;5093349;28;19932;-73
2023/09/18 03:53:56;;;;;;;;;;;;;;;;;;5093200;28;19927;-73
2023/09/18 03:56:23;;;;;;;;;;;;;;;;;;5093197;28;19924;-73
2023/09/18 03:58:51;;;;;;;;;;;;;;;;;;5093093;28;19924;-73
2023/09/18 04:01:18;;;;;;;;;;;;;;;;;;5093079;28;19930;-72
2023/09/18 04:03:45;;;;;;;;;;;;;;;;;;5093089;28;19924;-73
2023/09/18 04:06:12;;;;;;;;;;;;;;;;;;5082888;28;20409;-72
2023/09/18 04:08:39;;;;;;;;;;;;;;;;;;5073047;28;19946;-73
2023/09/18 04:11:09;;;;;;;;;;;;;;;;;;5085969;28;19969;-73
2023/09/18 04:13:37;;;;;;;;;;;;;;;;;;5092875;28;20038;-73
2023/09/18 04:16:04;;;;;;;;;;;;;;;;;;5092825;28;19939;-73
2023/09/18 04:18:31;;;;;;;;;;;;;;;;;;5092245;28;19924;-71
2023/09/18 04:20:58;;;;;;;;;;;;;;;;;;5091571;28;20035;-73
2023/09/18 04:23:25;;;;;;;;;;;;;;;;;;5080682;28;20379;-73
2023/09/18 04:25:52;;;;;;;;;;;;;;;;;;5088813;28;19977;-72
2023/09/18 04:28:19;;;;;;;;;;;;;;;;;;5102485;28;19963;-72
2023/09/18 04:30:46;;;;;;;;;;;;;;;;;;5078102;28;19923;-73
2023/09/18 04:33:13;;;;;;;;;;;;;;;;;;5092706;28;19924;-72
2023/09/18 04:35:40;;;;;;;;;;;;;;;;;;5092728;28;19964;-73
2023/09/18 04:38:08;;;;;;;;;;;;;;;;;;5092373;28;20436;-71
2023/09/18 04:40:35;;;;;;;;;;;;;;;;;;5090844;28;19932;-73
2023/09/18 04:43:04;;;;;;;;;;;;;;;;;;5092709;28;20451;-72
2023/09/18 04:45:31;;;;;;;;;;;;;;;;;;5092790;28;19928;-72
2023/09/18 04:47:58;;;;;;;;;;;;;;;;;;5089631;28;19924;-73
2023/09/18 04:50:26;;;;;;;;;;;;;;;;;;5071544;28;20398;-72
2023/09/18 04:52:54;;;;;;;;;;;;;;;;;;5088594;28;19924;-72
2023/09/18 04:55:21;;;;;;;;;;;;;;;;;;5091097;28;19924;-72
2023/09/18 04:57:48;;;;;;;;;;;;;;;;;;5080531;28;20039;-72
2023/09/18 05:00:16;;;;;;;;;;;;;;;;;;5081299;28;20323;-72
2023/09/18 05:02:43;;;;;;;;;;;;;;;;;;5072076;28;19924;-73
2023/09/18 05:05:10;;;;;;;;;;;;;;;;;;5071886;28;19924;-73
2023/09/18 05:07:37;;;;;;;;;;;;;;;;;;5084807;28;20383;-72
2023/09/18 05:10:05;;;;;;;;;;;;;;;;;;5092546;28;19924;-73
2023/09/18 05:12:32;;;;;;;;;;;;;;;;;;5091975;28;20378;-72
2023/09/18 05:14:59;;;;;;;;;;;;;;;;;;5092016;28;19979;-73
2023/09/18 05:17:26;;;;;;;;;;;;;;;;;;5087743;28;19924;-72
2023/09/18 05:19:54;;;;;;;;;;;;;;;;;;5091799;28;19924;-73
2023/09/18 05:22:21;;;;;;;;;;;;;;;;;;5092190;28;19931;-73
2023/09/18 05:24:48;;;;;;;;;;;;;;;;;;5090367;28;20287;-72
2023/09/18 05:27:16;;;;;;;;;;;;;;;;;;5091427;28;20011;-72
2023/09/18 05:29:43;;;;;;;;;;;;;;;;;;5094345;28;19952;-72
2023/09/18 05:32:10;;;;;;;;;;;;;;;;;;5093837;28;19924;-71
2023/09/18 05:34:37;;;;;;;;;;;;;;;;;;5094982;28;19928;-72
2023/09/18 05:37:04;;;;;;;;;;;;;;;;;;5087479;28;20283;-73
2023/09/18 05:39:31;;;;;;;;;;;;;;;;;;5092095;28;20302;-72
2023/09/18 05:41:59;;;;;;;;;;;;;;;;;;5092372;28;19924;-74
2023/09/18 05:44:26;;;;;;;;;;;;;;;;;;5092253;28;20018;-71
2023/09/18 05:46:53;;;;;;;;;;;;;;;;;;5088823;28;20032;-72
2023/09/18 05:49:20;;;;;;;;;;;;;;;;;;5091820;28;19924;-73
2023/09/18 05:51:48;;;;;;;;;;;;;;;;;;5092130;28;19973;-73
2023/09/18 05:54:15;;;;;;;;;;;;;;;;;;5091998;28;20389;-72
2023/09/18 05:56:42;;;;;;;;;;;;;;;;;;5092465;28;19978;-72
2023/09/18 05:59:09;;;;;;;;;;;;;;;;;;5090782;28;20019;-72
2023/09/18 06:01:37;;;;;;;;;;;;;;;;;;5084226;28;20346;-72
2023/09/18 06:04:04;;;;;;;;;;;;;;;;;;5088016;28;19931;-73
2023/09/18 06:06:31;;;;;;;;;;;;;;;;;;5083936;28;19978;-73
2023/09/18 06:08:58;;;;;;;;;;;;;;;;;;5082665;28;19928;-72
2023/09/18 06:11:26;;;;;;;;;;;;;;;;;;5077692;28;20018;-71
2023/09/18 06:13:54;;;;;;;;;;;;;;;;;;5083736;28;19999;-70
2023/09/18 06:16:21;;;;;;;;;;;;;;;;;;5088583;28;20005;-71
2023/09/18 06:18:48;;;;;;;;;;;;;;;;;;5085824;28;19931;-71
2023/09/18 06:21:15;;;;;;;;;;;;;;;;;;5079684;28;19933;-71
2023/09/18 06:23:42;;;;;;;;;;;;;;;;;;5086030;28;20033;-72
2023/09/18 06:26:09;;;;;;;;;;;;;;;;;;5093444;28;19928;-71
2023/09/18 06:28:36;;;;;;;;;;;;;;;;;;5087936;28;20290;-71
2023/09/18 06:31:03;;;;;;;;;;;;;;;;;;5089787;28;19924;-72
2023/09/18 06:33:30;;;;;;;;;;;;;;;;;;5082609;28;19924;-71
2023/09/18 06:35:58;;;;;;;;;;;;;;;;;;5081480;28;19977;-71
2023/09/18 06:38:25;;;;;;;;;;;;;;;;;;5087780;28;19928;-71
2023/09/18 06:40:52;;;;;;;;;;;;;;;;;;5085670;28;19934;-72
2023/09/18 06:43:20;;;;;;;;;;;;;;;;;;5086583;28;19964;-71
2023/09/18 06:45:46;;;;;;;;;;;;;;;;;;5083177;28;19924;-71
2023/09/18 06:48:14;;;;;;;;;;;;;;;;;;5090982;28;19924;-71
2023/09/18 06:50:41;;;;;;;;;;;;;;;;;;5082987;28;19964;-71
2023/09/18 06:53:08;;;;;;;;;;;;;;;;;;5090358;28;19977;-70
2023/09/18 06:55:35;;;;;;;;;;;;;;;;;;5093602;28;19924;-70
2023/09/18 06:58:02;;;;;;;;;;;;;;;;;;5087427;28;20389;-69
2023/09/18 07:00:29;;;;;;;;;;;;;;;;;;5084999;28;19950;-70
2023/09/18 07:02:57;;;;;;;;;;;;;;;;;;5086814;28;19931;-70
2023/09/18 07:05:24;;;;;;;;;;;;;;;;;;5088072;28;19946;-71
2023/09/18 07:07:51;;;;;;;;;;;;;;;;;;5086099;28;19924;-71
2023/09/18 07:10:18;;;;;;;;;;;;;;;;;;5085904;28;20333;-71
2023/09/18 07:12:45;;;;;;;;;;;;;;;;;;5084841;28;19931;-71
2023/09/18 07:15:12;;;;;;;;;;;;;;;;;;5078061;28;19924;-71
2023/09/18 07:17:39;;;;;;;;;;;;;;;;;;5084861;28;19970;-71
2023/09/18 07:20:13;;;;;;;;;;;;;;;;;;5085231;28;19924;-71
2023/09/18 07:22:40;;;;;;;;;;;;;;;;;;5086749;28;20011;-71
2023/09/18 07:25:07;;;;;;;;;;;;;;;;;;5077022;28;20024;-70
2023/09/18 07:27:36;;;;;;;;;;;;;;;;;;5093204;28;20014;-72
2023/09/18 07:30:04;;;;;;;;;;;;;;;;;;5093580;28;19971;-71
2023/09/18 07:32:31;;;;;;;;;;;;;;;;;;5079649;28;19935;-71
2023/09/18 07:34:58;;;;;;;;;;;;;;;;;;5077439;28;20291;-72
2023/09/18 07:37:25;;;;;;;;;;;;;;;;;;5078230;28;19925;-71
2023/09/18 07:39:52;;;;;;;;;;;;;;;;;;5085739;28;19999;-71
2023/09/18 07:42:19;;;;;;;;;;;;;;;;;;5083772;28;19986;-72
2023/09/18 07:44:46;;;;;;;;;;;;;;;;;;5074585;28;19940;-72
2023/09/18 07:47:13;;;;;;;;;;;;;;;;;;5088520;28;20290;-71
2023/09/18 07:49:40;;;;;;;;;;;;;;;;;;5089205;28;19924;-71
2023/09/18 07:52:07;;;;;;;;;;;;;;;;;;5083358;28;20379;-71
2023/09/18 07:54:34;;;;;;;;;;;;;;;;;;5097011;28;20020;-72
2023/09/18 07:57:01;;;;;;;;;;;;;;;;;;5087533;28;19924;-71
2023/09/18 07:59:28;;;;;;;;;;;;;;;;;;5088017;28;19932;-71
2023/09/18 08:01:55;;;;;;;;;;;;;;;;;;5082693;28;20429;-71
2023/09/18 08:04:22;;;;;;;;;;;;;;;;;;5084716;28;20412;-71
2023/09/18 08:06:49;;;;;;;;;;;;;;;;;;5090796;28;19965;-70
2023/09/18 08:09:17;;;;;;;;;;;;;;;;;;5087381;28;19924;-71
2023/09/18 08:11:43;;;;;;;;;;;;;;;;;;5087111;28;19924;-71
2023/09/18 08:14:11;;;;;;;;;;;;;;;;;;5089939;28;19977;-71
2023/09/18 08:16:38;;;;;;;;;;;;;;;;;;5084869;28;20325;-70
2023/09/18 08:19:05;;;;;;;;;;;;;;;;;;5082683;28;19928;-68
2023/09/18 08:21:32;;;;;;;;;;;;;;;;;;5087799;28;19928;-68
2023/09/18 08:23:59;;;;;;;;;;;;;;;;;;5082334;28;19924;-68
2023/09/18 08:26:27;;;;;;;;;;;;;;;;;;5086517;28;19997;-69
2023/09/18 08:28:54;;;;;;;;;;;;;;;;;;5087400;28;19998;-69
2023/09/18 08:31:21;;;;;;;;;;;;;;;;;;5082060;28;19982;-69
2023/09/18 08:33:48;;;;;;;;;;;;;;;;;;5082894;28;19970;-68
2023/09/18 08:36:15;;;;;;;;;;;;;;;;;;5085474;28;19924;-68
2023/09/18 08:38:43;;;;;;;;;;;;;;;;;;5083861;28;20314;-69
2023/09/18 08:41:10;;;;;;;;;;;;;;;;;;5081100;28;19924;-68
2023/09/18 08:43:37;;;;;;;;;;;;;;;;;;5085868;28;19924;-69
2023/09/18 08:46:04;;;;;;;;;;;;;;;;;;5082359;28;20341;-69
2023/09/18 08:48:34;;;;;;;;;;;;;;;;;;5089620;28;19928;-68
2023/09/18 08:51:02;;;;;;;;;;;;;;;;;;5091413;28;20611;-69
2023/09/18 08:53:29;;;;;;;;;;;;;;;;;;5085824;28;19925;-68
2023/09/18 08:55:58;;;;;;;;;;;;;;;;;;5082658;28;20041;-68
2023/09/18 08:58:25;;;;;;;;;;;;;;;;;;5078912;28;20423;-67
2023/09/18 09:00:52;;;;;;;;;;;;;;;;;;5085944;28;19924;-68
2023/09/18 09:03:19;;;;;;;;;;;;;;;;;;5087767;28;19985;-68
2023/09/18 09:05:46;;;;;;;;;;;;;;;;;;5088390;28;19957;-68
2023/09/18 09:08:14;;;;;;;;;;;;;;;;;;5092043;28;19925;-68
2023/09/18 09:10:41;;;;;;;;;;;;;;;;;;5080559;28;19981;-68
2023/09/18 09:13:08;;;;;;;;;;;;;;;;;;5082567;28;19924;-68
2023/09/18 09:15:36;;;;;;;;;;;;;;;;;;5082782;28;19924;-68
2023/09/18 09:18:03;;;;;;;;;;;;;;;;;;5088824;28;19924;-68
2023/09/18 09:20:30;;;;;;;;;;;;;;;;;;5078803;28;19950;-68
2023/09/18 09:22:57;;;;;;;;;;;;;;;;;;5081513;28;20387;-68
2023/09/18 09:25:25;;;;;;;;;;;;;;;;;;5079593;28;19924;-69
2023/09/18 09:27:53;;;;;;;;;;;;;;;;;;5082523;28;20333;-68
2023/09/18 09:30:20;;;;;;;;;;;;;;;;;;5089895;28;19974;-68
2023/09/18 09:32:47;;;;;;;;;;;;;;;;;;5090585;28;19924;-68
2023/09/18 09:35:14;;;;;;;;;;;;;;;;;;5086263;28;19923;-69
2023/09/18 09:37:41;;;;;;;;;;;;;;;;;;5076526;28;19970;-68
2023/09/18 09:40:09;;;;;;;;;;;;;;;;;;5077594;28;19975;-68
2023/09/18 09:42:36;;;;;;;;;;;;;;;;;;5088381;28;19925;-69
2023/09/18 09:45:03;;;;;;;;;;;;;;;;;;5088602;28;19970;-69
2023/09/18 09:47:30;;;;;;;;;;;;;;;;;;5092065;28;19931;-70
2023/09/18 09:49:57;;;;;;;;;;;;;;;;;;5076599;28;20002;-69
2023/09/18 09:52:24;;;;;;;;;;;;;;;;;;5092125;28;19924;-69
2023/09/18 09:54:51;;;;;;;;;;;;;;;;;;5093635;28;19953;-68
2023/09/18 09:57:18;;;;;;;;;;;;;;;;;;5083751;28;19924;-69
2023/09/18 09:59:45;;;;;;;;;;;;;;;;;;5090714;28;20264;-69
2023/09/18 10:02:19;;;;;;;;;;;;;;;;;;5083907;28;19928;-69
2023/09/18 10:04:48;;;;;;;;;;;;;;;;;;5088551;28;19931;-70
2023/09/18 10:07:15;;;;;;;;;;;;;;;;;;5075968;28;20015;-69
2023/09/18 10:09:43;;;;;;;;;;;;;;;;;;5090328;28;20404;-69
2023/09/18 10:12:10;;;;;;;;;;;;;;;;;;5090776;28;19924;-70
2023/09/18 10:14:38;;;;;;;;;;;;;;;;;;5093198;28;20335;-69
2023/09/18 10:17:06;;;;;;;;;;;;;;;;;;5089202;28;20402;-70
2023/09/18 10:19:33;;;;;;;;;;;;;;;;;;5089345;28;19924;-69
2023/09/18 10:22:05;;;;;;;;;;;;;;;;;;5075003;28;19940;-69
2023/09/18 10:24:32;;;;;;;;;;;;;;;;;;5076067;28;20268;-70
2023/09/18 10:27:00;;;;;;;;;;;;;;;;;;5074261;28;19928;-70
2023/09/18 10:29:27;;;;;;;;;;;;;;;;;;5074915;28;19931;-70
2023/09/18 10:31:54;;;;;;;;;;;;;;;;;;5078047;28;19954;-70
2023/09/18 10:34:22;;;;;;;;;;;;;;;;;;5089673;28;20007;-69
2023/09/18 10:36:49;;;;;;;;;;;;;;;;;;5090985;28;19975;-70
2023/09/18 10:39:19;;;;;;;;;;;;;;;;;;5091585;28;19978;-69
2023/09/18 10:41:46;;;;;;;;;;;;;;;;;;5079680;28;19929;-69
2023/09/18 10:44:13;;;;;;;;;;;;;;;;;;5080530;28;20015;-69
2023/09/18 10:46:40;;;;;;;;;;;;;;;;;;5087874;28;20543;-68
2023/09/18 10:49:07;;;;;;;;;;;;;;;;;;5091178;28;19931;-69
2023/09/18 10:51:34;;;;;;;;;;;;;;;;;;5092714;28;19982;-67
2023/09/18 10:54:03;;;;;;;;;;;;;;;;;;5085454;28;19974;-69
2023/09/18 10:56:30;;;;;;;;;;;;;;;;;;5079366;28;19931;-69
2023/09/18 10:58:57;;;;;;;;;;;;;;;;;;5085259;28;19985;-70
2023/09/18 11:01:24;;;;;;;;;;;;;;;;;;5089542;28;19985;-70
2023/09/18 11:03:51;;;;;;;;;;;;;;;;;;5082000;28;19924;-69
2023/09/18 11:06:21;;;;;;;;;;;;;;;;;;5093303;28;20367;-69
2023/09/18 11:08:48;;;;;;;;;;;;;;;;;;5092059;28;19931;-69
2023/09/18 11:11:16;;;;;;;;;;;;;;;;;;5080593;28;19931;-71
2023/09/18 11:13:43;;;;;;;;;;;;;;;;;;5086530;28;20006;-70
2023/09/18 11:16:10;;;;;;;;;;;;;;;;;;5088296;28;20092;-70
2023/09/18 11:18:37;;;;;;;;;;;;;;;;;;5093546;28;19985;-70
2023/09/18 11:21:04;;;;;;;;;;;;;;;;;;5083795;28;20383;-70
2023/09/18 11:23:34;;;;;;;;;;;;;;;;;;5083364;28;19928;-70
2023/09/18 11:26:01;;;;;;;;;;;;;;;;;;5085486;28;20006;-70
2023/09/18 11:28:28;;;;;;;;;;;;;;;;;;5087463;28;20022;-70
2023/09/18 11:30:58;;;;;;;;;;;;;;;;;;5092868;28;19924;-70
2023/09/18 11:33:25;;;;;;;;;;;;;;;;;;5083797;28;19946;-70
2023/09/18 11:35:53;;;;;;;;;;;;;;;;;;5090493;28;19961;-69
2023/09/18 11:38:20;;;;;;;;;;;;;;;;;;5082486;28;19947;-69
2023/09/18 11:40:47;;;;;;;;;;;;;;;;;;5086499;28;20013;-69
2023/09/18 11:43:15;;;;;;;;;;;;;;;;;;5089922;28;19931;-69
2023/09/18 11:45:42;;;;;;;;;;;;;;;;;;5090343;28;19932;-68
2023/09/18 11:48:10;;;;;;;;;;;;;;;;;;5087832;28;19924;-70
2023/09/18 11:50:37;;;;;;;;;;;;;;;;;;5075908;28;20407;-70
2023/09/18 11:53:04;;;;;;;;;;;;;;;;;;5091718;28;19993;-69
2023/09/18 11:55:34;;;;;;;;;;;;;;;;;;5098950;28;19927;-70
2023/09/18 11:58:02;;;;;;;;;;;;;;;;;;5088919;28;20032;-69
2023/09/18 12:00:29;;;;;;;;;;;;;;;;;;5082453;28;19924;-69
2023/09/18 12:02:57;;;;;;;;;;;;;;;;;;5085830;28;19978;-70
2023/09/18 12:05:26;;;;;;;;;;;;;;;;;;5075887;28;20290;-70
2023/09/18 12:07:53;;;;;;;;;;;;;;;;;;5075766;28;19924;-70
2023/09/18 12:10:20;;;;;;;;;;;;;;;;;;5084196;28;20387;-69
2023/09/18 12:12:47;;;;;;;;;;;;;;;;;;5082491;28;20377;-69
2023/09/18 12:15:15;;;;;;;;;;;;;;;;;;5092837;28;19924;-70
2023/09/18 12:17:42;;;;;;;;;;;;;;;;;;5092490;28;19924;-69
2023/09/18 12:20:09;;;;;;;;;;;;;;;;;;5086741;28;19928;-69
2023/09/18 12:22:36;;;;;;;;;;;;;;;;;;5075091;28;20388;-70
2023/09/18 12:25:03;;;;;;;;;;;;;;;;;;5073281;28;19978;-69
2023/09/18 12:27:31;;;;;;;;;;;;;;;;;;5083701;28;19924;-69
2023/09/18 12:29:58;;;;;;;;;;;;;;;;;;5085799;28;19925;-69
2023/09/18 12:32:25;;;;;;;;;;;;;;;;;;5074189;28;19924;-69
2023/09/18 12:34:52;;;;;;;;;;;;;;;;;;5078704;28;19924;-69
2023/09/18 12:37:19;;;;;;;;;;;;;;;;;;5089571;28;19924;-69
2023/09/18 12:39:46;;;;;;;;;;;;;;;;;;5078057;28;19924;-69
2023/09/18 12:42:13;;;;;;;;;;;;;;;;;;5082180;28;20001;-69
2023/09/18 12:44:40;;;;;;;;;;;;;;;;;;5082946;28;19969;-69
2023/09/18 12:47:07;;;;;;;;;;;;;;;;;;5082393;28;19928;-69
2023/09/18 12:49:34;;;;;;;;;;;;;;;;;;5088419;28;19969;-69
2023/09/18 12:52:01;;;;;;;;;;;;;;;;;;5075531;28;20353;-70
2023/09/18 12:54:28;;;;;;;;;;;;;;;;;;5094069;28;19955;-68
2023/09/18 12:56:55;;;;;;;;;;;;;;;;;;5094246;28;19925;-69
2023/09/18 12:59:22;;;;;;;;;;;;;;;;;;5081099;28;19924;-69
2023/09/18 13:01:49;;;;;;;;;;;;;;;;;;5076791;28;19924;-70
2023/09/18 13:04:16;;;;;;;;;;;;;;;;;;5084681;28;20459;-69
2023/09/18 13:06:44;;;;;;;;;;;;;;;;;;5089784;28;19928;-69
2023/09/18 13:09:11;;;;;;;;;;;;;;;;;;5088036;28;19954;-70
2023/09/18 13:11:38;;;;;;;;;;;;;;;;;;5089664;28;20445;-69
2023/09/18 13:14:05;;;;;;;;;;;;;;;;;;5084892;28;19969;-69
2023/09/18 13:16:32;;;;;;;;;;;;;;;;;;5093291;28;19924;-68
2023/09/18 13:19:00;;;;;;;;;;;;;;;;;;5093540;28;19970;-67
2023/09/18 13:21:27;;;;;;;;;;;;;;;;;;5075307;28;20367;-68
2023/09/18 13:23:54;;;;;;;;;;;;;;;;;;5075540;28;19932;-68
2023/09/18 13:26:21;;;;;;;;;;;;;;;;;;5091194;28;19964;-68
2023/09/18 13:28:48;;;;;;;;;;;;;;;;;;5095770;28;19924;-68
2023/09/18 13:31:15;;;;;;;;;;;;;;;;;;5089871;28;19924;-68
2023/09/18 13:33:44;;;;;;;;;;;;;;;;;;5078920;28;19978;-69
2023/09/18 13:36:11;;;;;;;;;;;;;;;;;;5093097;28;19924;-68
2023/09/18 13:38:38;;;;;;;;;;;;;;;;;;5094668;28;20291;-68
2023/09/18 13:41:05;;;;;;;;;;;;;;;;;;5095168;28;19989;-69
2023/09/18 13:43:34;;;;;;;;;;;;;;;;;;5090079;28;20023;-69
2023/09/18 13:46:04;;;;;;;;;;;;;;;;;;5090158;28;19978;-68
2023/09/18 13:48:32;;;;;;;;;;;;;;;;;;5089264;28;19924;-69
2023/09/18 13:50:59;;;;;;;;;;;;;;;;;;5080258;28;19962;-69
2023/09/18 13:53:27;;;;;;;;;;;;;;;;;;5086117;28;19928;-69
2023/09/18 13:55:54;;;;;;;;;;;;;;;;;;5075479;28;20011;-69
2023/09/18 13:58:23;;;;;;;;;;;;;;;;;;5088422;28;19947;-69
2023/09/18 14:00:50;;;;;;;;;;;;;;;;;;5084793;28;19928;-69
2023/09/18 14:03:18;;;;;;;;;;;;;;;;;;5081851;28;20295;-68
2023/09/18 14:05:45;;;;;;;;;;;;;;;;;;5074245;28;19964;-68
2023/09/18 14:08:12;;;;;;;;;;;;;;;;;;5077702;28;20409;-69
2023/09/18 14:10:39;;;;;;;;;;;;;;;;;;5081918;28;19929;-70
2023/09/18 14:13:07;;;;;;;;;;;;;;;;;;5086830;28;19967;-70
2023/09/18 14:15:34;;;;;;;;;;;;;;;;;;5092597;28;19979;-71
2023/09/18 14:18:01;;;;;;;;;;;;;;;;;;5078380;28;19924;-69
2023/09/18 14:20:28;;;;;;;;;;;;;;;;;;5082031;28;19932;-70
2023/09/18 14:22:55;;;;;;;;;;;;;;;;;;5083042;28;20349;-70
2023/09/18 14:25:22;;;;;;;;;;;;;;;;;;5082398;28;19932;-68
2023/09/18 14:27:49;;;;;;;;;;;;;;;;;;5088733;28;19924;-69
2023/09/18 14:30:18;;;;;;;;;;;;;;;;;;5074007;28;19939;-67
2023/09/18 14:32:45;;;;;;;;;;;;;;;;;;5085954;28;20008;-67
2023/09/18 14:35:13;;;;;;;;;;;;;;;;;;5090928;28;20407;-68
2023/09/18 14:37:40;;;;;;;;;;;;;;;;;;5092562;28;20341;-68
2023/09/18 14:40:11;;;;;;;;;;;;;;;;;;5089241;28;19935;-68
2023/09/18 14:42:38;;;;;;;;;;;;;;;;;;5077049;28;19932;-68
2023/09/18 14:45:05;;;;;;;;;;;;;;;;;;5083289;28;19924;-68
2023/09/18 14:47:33;;;;;;;;;;;;;;;;;;5087362;28;20009;-68
2023/09/18 14:50:01;;;;;;;;;;;;;;;;;;5084945;28;19928;-68
2023/09/18 14:52:28;;;;;;;;;;;;;;;;;;5085553;28;19931;-69
2023/09/18 14:54:55;;;;;;;;;;;;;;;;;;5091033;28;20703;-69
2023/09/18 14:57:23;;;;;;;;;;;;;;;;;;5090602;28;19924;-68
2023/09/18 14:59:50;;;;;;;;;;;;;;;;;;5082680;28;19924;-68
2023/09/18 15:02:17;;;;;;;;;;;;;;;;;;5080342;28;19928;-69
2023/09/18 15:04:44;;;;;;;;;;;;;;;;;;5077809;28;20038;-68
2023/09/18 15:07:11;;;;;;;;;;;;;;;;;;5087630;28;19924;-67
2023/09/18 15:09:38;;;;;;;;;;;;;;;;;;5078190;28;20332;-68
2023/09/18 15:12:07;;;;;;;;;;;;;;;;;;5076271;28;19940;-68
2023/09/18 15:14:34;;;;;;;;;;;;;;;;;;5080806;28;20023;-69
2023/09/18 15:17:01;;;;;;;;;;;;;;;;;;5084603;28;19967;-69
2023/09/18 15:19:28;;;;;;;;;;;;;;;;;;5077463;28;19932;-69
2023/09/18 15:21:57;;;;;;;;;;;;;;;;;;5078286;28;19935;-67
2023/09/18 15:24:24;;;;;;;;;;;;;;;;;;5087680;28;19924;-67
2023/09/18 15:26:51;;;;;;;;;;;;;;;;;;5084771;28;20387;-67
2023/09/18 15:29:19;;;;;;;;;;;;;;;;;;5080825;28;19935;-68
2023/09/18 15:31:47;;;;;;;;;;;;;;;;;;5086223;28;19936;-68
2023/09/18 15:34:14;;;;;;;;;;;;;;;;;;5085882;28;19932;-67
2023/09/18 15:36:41;;;;;;;;;;;;;;;;;;5083166;28;19927;-67
2023/09/18 15:39:09;;;;;;;;;;;;;;;;;;5080726;28;19945;-69
2023/09/18 15:41:38;;;;;;;;;;;;;;;;;;5082717;28;19924;-68
2023/09/18 15:44:05;;;;;;;;;;;;;;;;;;5084266;28;20359;-69
2023/09/18 15:46:34;;;;;;;;;;;;;;;;;;5082397;28;19978;-68
2023/09/18 15:49:01;;;;;;;;;;;;;;;;;;5086422;28;19930;-69
2023/09/18 15:51:28;;;;;;;;;;;;;;;;;;5088645;28;19924;-68
2023/09/18 15:53:55;;;;;;;;;;;;;;;;;;5087061;28;20018;-68
2023/09/18 15:56:22;;;;;;;;;;;;;;;;;;5086991;28;19942;-69
2023/09/18 15:58:49;;;;;;;;;;;;;;;;;;5086362;28;19924;-68
2023/09/18 16:01:16;;;;;;;;;;;;;;;;;;5085117;28;19932;-69
2023/09/18 16:03:46;;;;;;;;;;;;;;;;;;5084220;28;19985;-68
2023/09/18 16:06:14;;;;;;;;;;;;;;;;;;5084837;28;19939;-68
2023/09/18 16:08:41;;;;;;;;;;;;;;;;;;5087923;28;20357;-67
2023/09/18 16:11:08;;;;;;;;;;;;;;;;;;5082491;28;19928;-68
2023/09/18 16:13:35;;;;;;;;;;;;;;;;;;5081273;28;19930;-68
2023/09/18 16:16:02;;;;;;;;;;;;;;;;;;5085655;28;19992;-68
2023/09/18 16:18:29;;;;;;;;;;;;;;;;;;5080105;28;19990;-68
2023/09/18 16:20:56;;;;;;;;;;;;;;;;;;5080900;28;19932;-69
2023/09/18 16:23:23;;;;;;;;;;;;;;;;;;5083629;28;19924;-68
2023/09/18 16:25:51;;;;;;;;;;;;;;;;;;5078696;28;19992;-69
2023/09/18 16:28:37;;;;;;;;;;;;;;;;;;5080019;28;20059;-69
2023/09/18 16:31:08;;;;;;;;;;;;;;;;;;5085760;28;19924;-68
2023/09/18 16:33:35;;;;;;;;;;;;;;;;;;5084620;28;20394;-67
2023/09/18 16:36:03;;;;;;;;;;;;;;;;;;5082359;28;19943;-68
2023/09/18 16:38:30;;;;;;;;;;;;;;;;;;5079925;28;19936;-68
2023/09/18 16:40:57;;;;;;;;;;;;;;;;;;5079095;28;19936;-69
2023/09/18 16:43:24;;;;;;;;;;;;;;;;;;5079595;28;19997;-68
2023/09/18 16:45:51;;;;;;;;;;;;;;;;;;5077814;28;19959;-69